createdAt,value
2023-04-18T00:01:47.341Z,6.75
2023-04-18T00:08:49.188Z,6.57
2023-04-18T00:15:54.081Z,6.75
2023-04-18T00:22:55.984Z,7.45
2023-04-18T00:29:57.526Z,6.43
2023-04-18T00:36:59.063Z,6.63
2023-04-18T00:44:00.671Z,7.63
2023-04-18T00:51:02.384Z,6.95
2023-04-18T00:58:04.297Z,6.63
2023-04-18T01:05:06.648Z,5.68
2023-04-18T01:12:08.252Z,6.82
2023-04-18T01:19:09.832Z,7.18
2023-04-18T01:26:11.395Z,7.00
2023-04-18T01:33:13.108Z,8.05
2023-04-18T01:40:14.894Z,7.53
2023-04-18T01:47:16.506Z,7.60
2023-04-18T01:54:18.057Z,7.57
2023-04-18T02:01:19.850Z,6.97
2023-04-18T02:08:21.543Z,7.50
2023-04-18T02:15:24.096Z,6.53
2023-04-18T02:22:25.661Z,6.53
2023-04-18T02:29:27.985Z,6.95
2023-04-18T02:36:29.614Z,6.20
2023-04-18T02:43:31.630Z,7.18
2023-04-18T02:50:33.223Z,7.35
2023-04-18T02:57:34.865Z,6.47
2023-04-18T03:04:46.221Z,7.35
2023-04-18T03:11:48.259Z,7.05
2023-04-18T03:18:52.050Z,5.72
2023-04-18T03:25:55.813Z,5.75
2023-04-18T03:32:58.655Z,6.07
2023-04-18T03:40:00.590Z,7.22
2023-04-18T03:47:04.529Z,6.40
2023-04-18T03:54:08.904Z,6.43
2023-04-18T04:01:10.774Z,7.13
2023-04-18T04:08:14.302Z,6.30
2023-04-18T04:15:16.050Z,6.22
2023-04-18T04:22:24.775Z,7.18
2023-04-18T04:29:26.926Z,6.05
2023-04-18T04:36:28.636Z,6.82
2023-04-18T04:43:33.314Z,6.38
2023-04-18T04:50:36.041Z,6.97
2023-04-18T04:57:38.614Z,6.65
2023-04-18T05:04:53.696Z,6.65
2023-04-18T05:11:55.252Z,7.20
2023-04-18T05:18:56.864Z,8.18
2023-04-18T05:25:58.486Z,7.22
2023-04-18T05:33:00.099Z,7.10
2023-04-18T05:40:01.700Z,7.22
2023-04-18T05:47:06.185Z,6.53
2023-04-18T05:54:07.759Z,7.70
2023-04-18T06:01:09.640Z,8.15
2023-04-18T06:08:11.185Z,7.95
2023-04-18T06:15:12.835Z,6.70
2023-04-18T06:22:14.400Z,7.22
2023-04-18T06:29:17.956Z,6.65
2023-04-18T06:36:19.584Z,6.80
2023-04-18T06:43:22.011Z,6.53
2023-04-18T06:50:23.635Z,6.75
2023-04-18T06:57:25.823Z,5.97
2023-04-18T07:04:27.462Z,7.10
2023-04-18T07:11:29.109Z,7.28
2023-04-18T07:18:37.850Z,6.72
2023-04-18T07:25:40.513Z,6.97
2023-04-18T07:32:42.126Z,6.22
2023-04-18T07:39:43.669Z,6.88
2023-04-18T07:46:45.379Z,6.82
2023-04-18T07:53:46.996Z,5.95
2023-04-18T08:00:48.542Z,7.22
2023-04-18T08:07:50.437Z,7.68
2023-04-18T08:14:51.963Z,6.20
2023-04-18T08:21:53.500Z,7.05
2023-04-18T08:28:55.105Z,5.80
2023-04-18T08:35:56.661Z,6.28
2023-04-18T08:42:58.879Z,6.30
2023-04-18T08:50:00.708Z,6.18
2023-04-18T08:57:06.131Z,6.30
2023-04-18T09:04:07.823Z,6.03
2023-04-18T09:11:21.558Z,6.13
2023-04-18T09:18:24.142Z,6.82
2023-04-18T09:25:40.154Z,5.90
2023-04-18T09:32:44.987Z,6.30
2023-04-18T09:39:46.682Z,4.80
2023-04-18T09:46:49.313Z,6.20
2023-04-18T09:53:51.021Z,6.32
2023-04-18T10:00:53.568Z,6.05
2023-04-18T10:07:55.679Z,6.85
2023-04-18T10:14:57.427Z,6.28
2023-04-18T10:22:00.274Z,5.78
2023-04-18T10:29:02.519Z,6.57
2023-04-18T10:36:03.973Z,5.72
2023-04-18T10:43:06.795Z,5.72
2023-04-18T10:50:08.425Z,5.30
2023-04-18T10:57:11.196Z,5.95
2023-04-18T11:04:13.977Z,5.90
2023-04-18T11:11:15.958Z,6.85
2023-04-18T11:18:17.509Z,6.97
2023-04-18T11:25:23.908Z,6.90
2023-04-18T11:32:25.763Z,6.60
2023-04-18T11:39:27.623Z,5.53
2023-04-18T11:46:38.297Z,5.90
2023-04-18T11:53:39.984Z,5.95
2023-04-18T12:00:42.088Z,5.53
2023-04-18T12:07:47.842Z,6.63
2023-04-18T12:15:14.294Z,6.50
2023-04-18T12:22:16.779Z,6.70
2023-04-18T12:29:18.466Z,7.60
2023-04-18T12:36:22.008Z,7.28
2023-04-18T12:43:23.590Z,8.27
2023-04-18T12:50:25.866Z,6.40
2023-04-18T12:57:27.463Z,7.97
2023-04-18T13:04:29.344Z,8.43
2023-04-18T13:11:32.248Z,8.10
2023-04-18T13:18:33.916Z,8.00
2023-04-18T13:25:35.449Z,7.25
2023-04-18T13:32:37.577Z,7.53
2023-04-18T13:39:39.301Z,8.15
2023-04-18T13:46:41.115Z,7.43
2023-04-18T13:53:42.645Z,6.80
2023-04-18T14:00:44.159Z,7.13
2023-04-18T14:07:45.882Z,6.15
2023-04-18T14:14:47.827Z,6.18
2023-04-18T14:21:49.405Z,6.15
2023-04-18T14:28:51.220Z,6.90
2023-04-18T14:35:52.739Z,6.47
2023-04-18T14:42:56.681Z,6.93
2023-04-18T14:49:58.190Z,5.65
2023-04-18T14:56:59.761Z,5.85
2023-04-18T15:04:03.409Z,5.90
2023-04-18T15:11:08.546Z,6.03
2023-04-18T15:18:10.897Z,4.95
2023-04-18T15:25:16.257Z,5.07
2023-04-18T15:32:18.031Z,4.88
2023-04-18T15:39:23.198Z,4.63
2023-04-18T15:46:24.767Z,5.25
2023-04-18T15:53:26.868Z,4.55
2023-04-18T16:00:28.770Z,3.97
2023-04-18T16:07:30.486Z,5.05
2023-04-18T16:14:33.335Z,3.45
2023-04-18T16:21:34.914Z,3.38
2023-04-18T16:28:39.323Z,3.40
2023-04-18T16:35:40.897Z,3.38
2023-04-18T16:42:42.453Z,3.20
2023-04-18T16:49:46.432Z,3.00
2023-04-18T16:56:48.237Z,3.70
2023-04-18T17:03:49.883Z,2.80
2023-04-18T17:10:52.591Z,3.13
2023-04-18T17:17:56.226Z,3.20
2023-04-18T17:24:57.794Z,3.30
2023-04-18T17:31:59.397Z,3.40
2023-04-18T17:39:06.919Z,3.42
2023-04-18T17:46:08.856Z,3.05
2023-04-18T17:53:12.232Z,3.25
2023-04-18T18:00:14.527Z,3.42
2023-04-18T18:07:16.235Z,3.20
2023-04-18T18:14:17.749Z,3.28
2023-04-18T18:21:19.348Z,3.40
2023-04-18T18:28:20.865Z,3.60
2023-04-18T18:35:22.392Z,3.25
2023-04-18T18:42:23.920Z,3.20
2023-04-18T18:49:28.740Z,3.22
2023-04-18T18:56:30.415Z,3.75
2023-04-18T19:03:32.366Z,2.88
2023-04-18T19:10:33.979Z,3.78
2023-04-18T19:17:35.703Z,3.40
2023-04-18T19:24:37.461Z,3.90
2023-04-18T19:31:39.253Z,2.70
2023-04-18T19:38:41.449Z,3.47
2023-04-18T19:45:43.020Z,3.20
2023-04-18T19:52:44.557Z,3.13
2023-04-18T19:59:46.095Z,3.20
2023-04-18T20:06:47.651Z,3.53
2023-04-18T20:13:49.390Z,3.80
2023-04-18T20:20:51.241Z,5.35
2023-04-18T20:27:52.824Z,4.40
2023-04-18T20:34:54.614Z,3.85
2023-04-18T20:41:57.564Z,4.05
2023-04-18T20:48:59.269Z,4.07
2023-04-18T20:56:02.689Z,3.90
2023-04-18T21:03:04.319Z,3.38
2023-04-18T21:10:06.463Z,3.90
2023-04-18T21:17:09.773Z,3.20
2023-04-18T21:24:11.305Z,4.68
2023-04-18T21:31:12.881Z,3.42
2023-04-18T21:38:14.446Z,4.35
2023-04-18T21:45:15.994Z,4.18
2023-04-18T21:52:17.531Z,4.43
2023-04-18T21:59:19.068Z,4.60
2023-04-18T22:06:20.728Z,4.05
2023-04-18T22:13:22.614Z,3.92
2023-04-18T22:20:25.457Z,3.95
2023-04-18T22:27:27.001Z,3.80
2023-04-18T22:34:28.588Z,4.18
2023-04-18T22:41:30.261Z,3.42
2023-04-18T22:48:31.788Z,3.25
2023-04-18T22:55:33.366Z,2.95
2023-04-18T23:02:35.096Z,3.20
2023-04-18T23:09:36.744Z,3.65
2023-04-18T23:16:38.443Z,2.78
2023-04-18T23:23:40.036Z,2.60
2023-04-18T23:30:41.600Z,1.95
2023-04-18T23:37:43.575Z,2.78
2023-04-18T23:44:45.176Z,3.13
2023-04-18T23:51:46.693Z,2.70
2023-04-18T23:58:48.235Z,2.60
